Terminal Aerodrome Forecast
Issued by NWS

Home | Current Version | Previous Version | Graphics & Text | Print | Product List | Glossary On
Versions: 1 2 3 4 5 6 7 8 9 10 11 12 13 14 15 16 17 18 19 20 21 22 23 24 25 26 27 28 29 30 31 32 33 34 35 36 37 38 39 40 41 42
000
FTUS43 KGRB 050535
TAFRHI
TAF
KRHI 050535Z 0506/0606 25009KT P6SM SCT004 OVC008
      TEMPO 0506/0508 4SM -FZDZSN BR OVC004
     FM050800 25008KT P6SM BKN012 OVC020
     FM051300 24005KT 4SM BR BKN250
     FM051500 20007KT P6SM BKN250
     FM051800 15009KT P6SM SCT015 BKN100
     FM052300 17009KT P6SM SCT015 BKN100 WS015/20040KT
      TEMPO 0604/0606 BKN015 BKN040=

USA.gov is the U.S. government's official web portal to all federal, state and local government web resources and services.